Hollywood, FL

1:24 AM EDT on August 29, 2014 (GMT -0400)
Fort Lauderdale-Hollywood International | Change Station
CLOSE
Current Station
Airport
Location: Ft Lauderdale,
Elevation: 10 ft
Nearby Weather Stations

Elev 10 ft 26.07 °N, 80.15 °W | Updated 31 minutes ago

Scattered Clouds
Scattered Clouds
85 °F
Feels Like 95 °F
N
4
Wind Variable Wind from South

Today
High -- | Low -- °F
--% Chance of Precip.
Yesterday
High -- | Low -- °F
Precip. -- in
6:59 AM 7:43 PM
Waxing Crescent, 12% visible
Pressure 30.02 in
Visibility 10.0 miles
Clouds Few 2600 ft
Scattered Clouds 25000 ft
Heat Index 95 °F
Dew Point 77 °F
Humidity 77%
Rainfall 0.00 in
Snow Depth Not available.
UV 0 out of 12
Pollen 4.40 out of 12
Air Quality Not available.
Flu Activity Not available.
METAR KFLL 290453Z 18003KT 10SM FEW026 SCT250 29/25 A3002 RMK AO2 SLP164 T02940250 403330278

More Conditions Fewer Conditions

Pressure 30.02 in
Visibility 10.0 miles
Clouds Few 2600 ft
Scattered Clouds 25000 ft
Heat Index 95 °F
Dew Point 77 °F
Humidity 77%
Rainfall 0.00 in
Snow Depth Not available.
UV 0 out of 12
Pollen 4.40 out of 12
Air Quality Not available.
Flu Activity Not available.
METAR KFLL 290453Z 18003KT 10SM FEW026 SCT250 29/25 A3002 RMK AO2 SLP164 T02940250 403330278

More Conditions Fewer Conditions

10-Day Weather Forecast

Almanac

Astronomy

Aug. 29, 2014 Rise Set
Actual Time 6:59 AM EDT 7:43 PM EDT
Civil Twilight 6:36 AM EDT 8:06 PM EDT
Nautical Twilight 6:08 AM EDT 8:34 PM EDT
Astronomical Twilight 5:40 AM EDT 9:02 PM EDT
Moon 10:21 AM EDT 10:08 PM EDT
Length of Visible Light 13h 30m
Length of Day
12h 43m
Tomorrow will be 1m 27s shorter.
Waxing Crescent, 12% of the Moon is Illuminated
Today
Waxing Crescent
Sep 2
First Quarter
Sep 8
Full
Sep 15
Last Quarter
Sep 24
New

Today's Extremes

State Highs State Lows

Community

WunderPhotos

Upload Photos

1,748,192 photos uploaded!

Nearby

Air Quality

  Air Quality AQ Index Pollutant
Yesterday Good
OZONE
Thursday Good
OZONE
Thursday Good
PM2.5
Friday Good
OZONE
Friday Good
PM2.5
Saturday Good
OZONE
Saturday Good
PM2.5
Sunday Good
OZONE
Sunday Good
PM2.5
Monday Good
OZONE
Monday Good
PM2.5
Tuesday Good
OZONE
Tuesday Good
PM2.5

Snow Depth

Station Depth Elevation
No new snow has been reported.

Earthquake Activity

City Distance Mag. Time & Date
No recent earthquake activity has been reported nearby.
Minimum magnitude displayed is 2.5.

Coastal Water Temperatures

Place Temperature
Virginia Key, FL 87.1 °F

Nearby Weather Stations